createdAt,value
2018-08-19T00:00:22.792Z,15.93
2018-08-19T00:03:11.327Z,15.98
2018-08-19T00:03:50.430Z,15.99
2018-08-19T00:04:51.075Z,15.95
2018-08-19T00:05:50.672Z,15.91
2018-08-19T00:07:11.771Z,15.88
2018-08-19T00:08:12.580Z,15.93
2018-08-19T00:08:51.573Z,15.98
2018-08-19T00:09:51.574Z,15.95
2018-08-19T00:11:13.073Z,15.91
2018-08-19T00:12:15.080Z,15.95
2018-08-19T00:14:44.574Z,15.91
2018-08-19T00:15:25.035Z,15.91
2018-08-19T00:16:23.586Z,15.74
2018-08-19T00:17:39.077Z,15.73
2018-08-19T00:19:55.326Z,15.70
2018-08-19T00:20:55.333Z,15.68
2018-08-19T00:21:55.335Z,15.59
2018-08-19T00:23:16.765Z,15.56
2018-08-19T00:24:16.830Z,15.55
2018-08-19T00:25:16.871Z,15.49
2018-08-19T00:25:55.306Z,15.53
2018-08-19T00:26:58.333Z,15.51
2018-08-19T00:29:31.162Z,15.46
2018-08-19T00:30:27.730Z,15.44
2018-08-19T00:31:27.729Z,15.37
2018-08-19T00:33:59.473Z,15.38
2018-08-19T00:34:59.489Z,15.23
2018-08-19T00:36:05.981Z,15.20
2018-08-19T00:37:13.979Z,15.23
2018-08-19T00:38:21.309Z,15.28
2018-08-19T00:39:20.989Z,15.22
2018-08-19T00:39:59.981Z,15.27
2018-08-19T00:42:31.725Z,15.31
2018-08-19T00:43:31.078Z,15.35
2018-08-19T00:44:52.732Z,15.33
2018-08-19T00:47:17.497Z,15.22
2018-08-19T00:48:03.504Z,15.16
2018-08-19T00:49:03.510Z,15.22
2018-08-19T00:50:24.994Z,15.25
2018-08-19T00:51:25.000Z,15.15
2018-08-19T00:52:04.928Z,15.23
2018-08-19T00:53:09.996Z,15.19
2018-08-19T00:54:18.497Z,15.16
2018-08-19T00:55:04.504Z,15.15
2018-08-19T00:56:04.497Z,15.05
2018-08-19T00:57:04.496Z,15.00
2018-08-19T00:58:27.996Z,15.04
2018-08-19T00:59:04.223Z,15.01
2018-08-19T01:01:57.497Z,15.05
2018-08-19T01:02:58.502Z,15.12
2018-08-19T01:03:50.500Z,15.07
2018-08-19T01:04:39.001Z,15.05
2018-08-19T01:05:36.998Z,15.05
2018-08-19T01:06:37.003Z,15.01
2018-08-19T01:07:37.009Z,15.11
2018-08-19T01:08:38.957Z,15.15
2018-08-19T01:09:36.672Z,15.15
2018-08-19T01:10:37.500Z,15.11
2018-08-19T01:11:37.503Z,15.12
2018-08-19T01:12:37.509Z,15.18
2018-08-19T01:15:30.252Z,15.01
2018-08-19T01:16:30.266Z,15.04
2018-08-19T01:17:31.259Z,15.01
2018-08-19T01:19:41.050Z,15.09
2018-08-19T01:22:12.551Z,14.94
2018-08-19T01:24:50.044Z,14.86
2018-08-19T01:25:59.049Z,14.86
2018-08-19T01:27:04.504Z,14.82
2018-08-19T01:27:46.582Z,14.93
2018-08-19T01:28:44.553Z,14.91
2018-08-19T01:29:44.550Z,14.90
2018-08-19T01:30:50.551Z,14.86
2018-08-19T01:31:44.555Z,14.86
2018-08-19T01:32:47.051Z,14.85
2018-08-19T01:33:45.051Z,14.82
2018-08-19T01:34:45.051Z,14.86
2018-08-19T01:35:45.052Z,14.79
2018-08-19T01:36:46.483Z,14.85
2018-08-19T01:37:46.986Z,14.82
2018-08-19T01:38:45.550Z,14.78
2018-08-19T01:39:46.014Z,14.72
2018-08-19T01:40:45.115Z,14.80
2018-08-19T01:41:46.050Z,14.78
2018-08-19T01:42:46.053Z,14.72
2018-08-19T01:44:07.051Z,14.69
2018-08-19T01:44:46.051Z,14.60
2018-08-19T01:47:17.823Z,14.71
2018-08-19T01:48:38.828Z,14.60
2018-08-19T01:49:17.829Z,14.61
2018-08-19T01:56:24.200Z,14.46
2018-08-19T01:57:24.208Z,14.44
2018-08-19T01:58:25.687Z,14.45
2018-08-19T01:59:44.756Z,14.54
2018-08-19T02:00:38.708Z,14.56
2018-08-19T02:01:24.708Z,14.49
2018-08-19T02:02:24.705Z,14.45
2018-08-19T02:03:24.708Z,14.42
2018-08-19T02:05:56.953Z,14.34
2018-08-19T02:06:59.932Z,14.39
2018-08-19T02:07:56.431Z,14.29
2018-08-19T02:08:56.530Z,14.29
2018-08-19T02:10:17.609Z,14.23
2018-08-19T02:10:57.458Z,14.24
2018-08-19T02:12:19.897Z,14.29
2018-08-19T02:12:57.457Z,14.27
2018-08-19T02:14:03.958Z,14.35
2018-08-19T02:16:29.199Z,14.31
2018-08-19T02:19:20.979Z,14.42
2018-08-19T02:21:32.270Z,14.38
2018-08-19T02:22:34.174Z,14.26
2018-08-19T02:23:38.244Z,14.36
2018-08-19T02:24:41.218Z,14.35
2018-08-19T02:27:04.094Z,14.29
2018-08-19T02:28:06.103Z,14.21
2018-08-19T02:29:03.582Z,14.11
2018-08-19T02:30:04.601Z,14.02
2018-08-19T02:32:38.481Z,13.98
2018-08-19T02:33:36.496Z,13.99
2018-08-19T02:36:07.982Z,13.86
2018-08-19T02:37:08.986Z,13.86
2018-08-19T02:38:07.992Z,13.87
2018-08-19T02:40:53.743Z,13.76
2018-08-19T02:41:41.745Z,13.90
2018-08-19T02:42:39.745Z,13.81
2018-08-19T02:44:03.252Z,13.79
2018-08-19T02:46:11.635Z,13.81
2018-08-19T02:47:11.735Z,13.81
2018-08-19T02:48:32.643Z,13.80
2018-08-19T02:50:57.397Z,13.93
2018-08-19T02:52:10.402Z,13.90
2018-08-19T02:52:43.405Z,13.91
2018-08-19T02:53:43.902Z,13.83
2018-08-19T02:54:45.914Z,13.93
2018-08-19T02:55:49.905Z,13.88
2018-08-19T02:56:43.378Z,13.90
2018-08-19T02:57:46.405Z,13.94
2018-08-19T02:58:44.407Z,13.88
2018-08-19T02:59:44.379Z,13.88
2018-08-19T03:00:44.404Z,13.88
2018-08-19T03:01:44.906Z,13.87
2018-08-19T03:02:45.906Z,13.80
2018-08-19T03:03:44.904Z,13.76
2018-08-19T03:04:44.908Z,13.83
2018-08-19T03:05:47.407Z,13.81
2018-08-19T03:06:46.405Z,13.75
2018-08-19T03:07:45.404Z,13.73
2018-08-19T03:08:45.407Z,13.79
2018-08-19T03:11:16.451Z,13.71
2018-08-19T03:12:17.181Z,13.73
2018-08-19T03:13:44.183Z,13.73
2018-08-19T03:14:37.766Z,13.72
2018-08-19T03:15:19.274Z,13.76
2018-08-19T03:16:17.683Z,13.71
2018-08-19T03:17:20.156Z,13.73
2018-08-19T03:18:17.252Z,13.71
2018-08-19T03:19:41.187Z,13.76
2018-08-19T03:20:17.416Z,13.80
2018-08-19T03:22:49.444Z,13.73
2018-08-19T03:24:17.196Z,13.71
2018-08-19T03:30:58.105Z,13.47
2018-08-19T03:31:56.115Z,13.47
2018-08-19T03:32:56.120Z,13.47
2018-08-19T03:33:57.610Z,13.43
2018-08-19T03:35:16.820Z,13.50
2018-08-19T03:36:02.624Z,13.50
2018-08-19T03:36:56.606Z,13.48
2018-08-19T03:38:24.118Z,13.55
2018-08-19T03:38:57.112Z,13.48
2018-08-19T03:39:57.112Z,13.50
2018-08-19T03:40:56.590Z,13.47
2018-08-19T03:42:18.612Z,13.50
2018-08-19T03:42:57.611Z,13.48
2018-08-19T03:43:56.961Z,13.53
2018-08-19T03:44:57.611Z,13.44
2018-08-19T03:46:00.112Z,13.47
2018-08-19T03:47:19.112Z,13.39
2018-08-19T03:48:02.558Z,13.38
2018-08-19T03:48:58.116Z,13.46
2018-08-19T03:50:19.611Z,13.43
2018-08-19T03:51:19.809Z,13.35
2018-08-19T03:51:58.611Z,13.41
2018-08-19T03:53:00.588Z,13.32
2018-08-19T03:53:58.611Z,13.39
2018-08-19T03:55:20.133Z,13.39
2018-08-19T03:55:58.343Z,13.31
2018-08-19T03:56:59.112Z,13.41
2018-08-19T03:57:59.113Z,13.38
2018-08-19T03:59:05.611Z,13.38
2018-08-19T04:00:20.838Z,13.47
2018-08-19T04:01:02.049Z,13.44
2018-08-19T04:02:00.608Z,13.47
2018-08-19T04:03:21.118Z,13.50
2018-08-19T04:04:01.544Z,13.50
2018-08-19T04:06:33.062Z,13.44
2018-08-19T04:07:33.793Z,13.38
2018-08-19T04:08:54.794Z,13.46
2018-08-19T04:09:55.318Z,13.44
2018-08-19T04:10:34.293Z,13.24
2018-08-19T04:11:33.640Z,13.32
2018-08-19T04:12:48.294Z,13.28
2018-08-19T04:13:34.800Z,13.24
2018-08-19T04:14:57.790Z,13.24
2018-08-19T04:15:34.793Z,13.13
2018-08-19T04:16:34.293Z,13.12
2018-08-19T04:20:37.966Z,13.21
2018-08-19T04:21:37.339Z,13.21
2018-08-19T04:22:37.983Z,13.13
2018-08-19T04:25:15.720Z,13.17
2018-08-19T04:26:09.068Z,13.12
2018-08-19T04:27:11.728Z,13.04
2018-08-19T04:28:31.228Z,13.10
2018-08-19T04:29:17.226Z,13.24
2018-08-19T04:30:09.571Z,13.16
2018-08-19T04:31:10.228Z,13.14
2018-08-19T04:32:33.660Z,13.17
2018-08-19T04:33:10.724Z,13.13
2018-08-19T04:34:16.729Z,13.16
2018-08-19T04:35:10.806Z,13.17
2018-08-19T04:36:17.229Z,13.17
2018-08-19T04:37:38.228Z,13.28
2018-08-19T04:39:42.606Z,13.31
2018-08-19T04:41:03.606Z,13.28
2018-08-19T04:41:42.605Z,13.25
2018-08-19T04:42:43.105Z,13.25
2018-08-19T04:43:57.103Z,13.36
2018-08-19T04:44:43.105Z,13.32
2018-08-19T04:45:44.560Z,13.28
2018-08-19T04:47:04.604Z,13.27
2018-08-19T04:47:43.604Z,13.25
2018-08-19T04:48:43.601Z,13.27
2018-08-19T04:49:43.610Z,13.28
2018-08-19T04:50:43.608Z,13.29
2018-08-19T04:52:05.126Z,13.41
2018-08-19T04:52:46.104Z,13.43
2018-08-19T04:54:06.102Z,13.46
2018-08-19T04:54:43.579Z,13.46
2018-08-19T04:56:06.602Z,13.44
2018-08-19T04:56:58.604Z,13.50
2018-08-19T04:57:44.604Z,13.48
2018-08-19T04:58:44.605Z,13.54
2018-08-19T04:59:44.221Z,13.51
2018-08-19T05:02:16.559Z,13.43
2018-08-19T05:03:37.470Z,13.44
2018-08-19T05:04:16.467Z,13.47
2018-08-19T05:07:08.484Z,13.51
2018-08-19T05:07:48.244Z,13.59
2018-08-19T05:09:09.234Z,13.63
2018-08-19T05:09:52.164Z,13.46
2018-08-19T05:10:50.732Z,13.50
2018-08-19T05:11:48.738Z,13.51
2018-08-19T05:12:48.210Z,13.47
2018-08-19T05:13:55.240Z,13.48
2018-08-19T05:15:11.707Z,13.48
2018-08-19T05:16:12.242Z,13.63
2018-08-19T05:16:50.702Z,13.65
2018-08-19T05:17:49.737Z,13.65
2018-08-19T05:20:27.095Z,13.57
2018-08-19T05:21:24.035Z,13.44
2018-08-19T05:22:21.103Z,13.51
2018-08-19T05:23:21.603Z,13.54
2018-08-19T05:24:20.825Z,13.50
2018-08-19T05:25:21.605Z,13.54
2018-08-19T05:26:21.606Z,13.53
2018-08-19T05:27:22.103Z,13.66
2018-08-19T05:28:42.306Z,13.71
2018-08-19T05:29:22.126Z,13.71
2018-08-19T05:30:46.537Z,13.75
2018-08-19T05:31:22.126Z,13.72
2018-08-19T05:34:21.380Z,13.83
2018-08-19T05:35:21.387Z,13.79
2018-08-19T05:37:46.769Z,13.93
2018-08-19T05:38:27.208Z,13.88
2018-08-19T05:39:46.228Z,13.91
2018-08-19T05:42:11.985Z,14.08
2018-08-19T05:43:13.451Z,14.09
2018-08-19T05:43:57.303Z,14.17
2018-08-19T05:45:18.989Z,14.19
2018-08-19T05:47:57.121Z,14.36
2018-08-19T05:48:30.128Z,14.38
2018-08-19T05:49:44.132Z,14.38
2018-08-19T05:50:31.102Z,14.44
2018-08-19T05:54:47.143Z,14.57
2018-08-19T05:55:33.159Z,14.67
2018-08-19T05:56:39.152Z,14.71
2018-08-19T05:57:58.591Z,14.75
2018-08-19T05:58:54.647Z,14.72
2018-08-19T05:59:54.657Z,14.79
2018-08-19T06:00:54.659Z,14.82
2018-08-19T06:01:33.121Z,14.87
2018-08-19T06:05:36.786Z,15.05
2018-08-19T06:06:36.794Z,15.11
2018-08-19T06:07:36.843Z,15.12
2018-08-19T06:08:37.293Z,15.20
2018-08-19T06:09:36.513Z,15.23
2018-08-19T06:10:39.728Z,15.31
2018-08-19T06:11:37.293Z,15.31
2018-08-19T06:12:59.271Z,15.37
2018-08-19T06:13:51.793Z,15.43
2018-08-19T06:14:39.225Z,15.41
2018-08-19T06:15:37.793Z,15.46
2018-08-19T06:16:38.289Z,15.59
2018-08-19T06:17:38.301Z,15.64
2018-08-19T06:18:38.295Z,15.76
2018-08-19T06:19:44.294Z,15.85
2018-08-19T06:20:42.225Z,15.91
2018-08-19T06:21:59.789Z,16.04
2018-08-19T06:22:38.096Z,15.95
2018-08-19T06:23:41.265Z,15.98
2018-08-19T06:24:38.275Z,16.14
2018-08-19T06:25:41.292Z,16.26
2018-08-19T06:28:31.540Z,16.34
2018-08-19T06:29:31.548Z,16.51
2018-08-19T06:30:12.045Z,16.60
2018-08-19T06:31:13.084Z,16.55
2018-08-19T06:32:10.391Z,16.57
2018-08-19T06:33:11.047Z,16.52
2018-08-19T06:34:32.583Z,16.70
2018-08-19T06:35:11.557Z,16.75
2018-08-19T06:36:34.011Z,16.82
2018-08-19T06:37:11.547Z,16.82
2018-08-19T06:38:12.047Z,16.81
2018-08-19T06:39:32.277Z,16.91
2018-08-19T06:40:11.384Z,16.99
2018-08-19T06:41:13.046Z,17.02
2018-08-19T06:42:12.547Z,17.15
2018-08-19T06:43:11.864Z,17.24
2018-08-19T06:44:13.545Z,17.24
2018-08-19T06:46:44.211Z,17.42
2018-08-19T06:48:07.220Z,17.46
2018-08-19T06:48:44.223Z,17.58
2018-08-19T06:50:05.727Z,17.62
2018-08-19T06:50:43.984Z,17.71
2018-08-19T06:51:44.722Z,17.68
2018-08-19T06:52:46.721Z,17.76
2018-08-19T06:53:44.322Z,17.83
2018-08-19T06:54:51.220Z,17.91
2018-08-19T06:55:59.232Z,18.07
2018-08-19T06:56:45.226Z,18.04
2018-08-19T06:59:22.985Z,18.32
2018-08-19T07:00:18.448Z,18.36
2018-08-19T07:01:16.977Z,18.41
2018-08-19T07:02:37.593Z,18.59
2018-08-19T07:03:17.498Z,18.62
2018-08-19T07:04:17.477Z,18.76
2018-08-19T07:05:17.479Z,18.83
2018-08-19T07:06:18.409Z,18.86
2018-08-19T07:07:19.978Z,18.94
2018-08-19T07:08:18.909Z,18.99
2018-08-19T07:09:17.975Z,18.94
2018-08-19T07:10:45.475Z,19.17
2018-08-19T07:11:40.476Z,19.27
2018-08-19T07:12:40.927Z,19.23
2018-08-19T07:13:18.482Z,19.30
2018-08-19T07:16:10.481Z,19.47
2018-08-19T07:17:11.240Z,19.57
2018-08-19T07:17:50.236Z,19.76
2018-08-19T07:18:53.714Z,19.76
2018-08-19T07:19:49.940Z,19.89
2018-08-19T07:20:50.737Z,20.04
2018-08-19T07:21:50.737Z,20.05
2018-08-19T07:22:50.742Z,20.17
2018-08-19T07:23:51.255Z,20.22
2018-08-19T07:24:51.238Z,20.34
2018-08-19T07:25:50.589Z,20.44
2018-08-19T07:26:51.238Z,20.54
2018-08-19T07:28:12.738Z,20.58
2018-08-19T07:28:50.963Z,20.56
2018-08-19T07:29:51.122Z,20.71
2018-08-19T07:30:51.165Z,20.79
2018-08-19T07:32:13.239Z,20.91
2018-08-19T07:32:52.278Z,20.97
2018-08-19T07:35:23.675Z,21.21
2018-08-19T07:36:23.682Z,21.31
2018-08-19T07:37:23.685Z,21.31
2018-08-19T07:39:57.432Z,21.55
2018-08-19T07:41:16.445Z,21.61
2018-08-19T07:41:56.874Z,21.75
2018-08-19T07:42:55.937Z,21.67
2018-08-19T07:43:56.073Z,21.64
2018-08-19T07:48:13.871Z,21.98
2018-08-19T07:49:19.911Z,22.14
2018-08-19T07:50:26.413Z,22.23
2018-08-19T07:52:31.291Z,22.41
2018-08-19T07:53:31.302Z,22.51
2018-08-19T07:54:31.302Z,22.49
2018-08-19T07:55:31.302Z,22.66
2018-08-19T07:56:31.800Z,22.67
2018-08-19T07:59:24.190Z,22.85
2018-08-19T08:00:24.195Z,22.79
2018-08-19T08:01:24.256Z,22.85
2018-08-19T08:03:55.960Z,22.86
2018-08-19T08:04:56.965Z,22.85
2018-08-19T08:05:55.967Z,22.93
2018-08-19T08:06:56.467Z,22.99
2018-08-19T08:07:56.468Z,22.97
2018-08-19T08:08:34.821Z,23.11
2018-08-19T08:09:41.467Z,23.16
2018-08-19T08:10:35.967Z,23.06
2018-08-19T08:11:57.482Z,23.21
2018-08-19T08:12:37.433Z,23.22
2018-08-19T08:13:35.969Z,23.37
2018-08-19T08:16:07.000Z,23.49
2018-08-19T08:17:28.727Z,23.47
2018-08-19T08:18:07.727Z,23.53
2018-08-19T08:20:39.438Z,23.60
2018-08-19T08:21:39.721Z,23.64
2018-08-19T08:24:32.217Z,23.77
2018-08-19T08:25:11.228Z,23.82
2018-08-19T08:26:11.224Z,23.90
2018-08-19T08:27:11.724Z,23.89
2018-08-19T08:28:11.723Z,23.93
2018-08-19T08:33:46.411Z,24.04
2018-08-19T08:35:46.415Z,24.00
2018-08-19T08:39:49.615Z,24.19
2018-08-19T08:42:27.130Z,24.30
2018-08-19T08:43:22.570Z,24.34
2018-08-19T08:44:22.069Z,24.52
2018-08-19T08:46:52.928Z,24.61
2018-08-19T08:48:14.936Z,24.64
2018-08-19T08:48:52.928Z,24.77
2018-08-19T08:51:29.633Z,24.82
2018-08-19T08:52:24.699Z,24.94
2018-08-19T08:53:45.164Z,25.02
2018-08-19T08:54:24.281Z,25.04
2018-08-19T08:55:48.200Z,25.29
2018-08-19T08:56:46.200Z,25.26
2018-08-19T08:57:26.659Z,25.29
2018-08-19T08:58:28.152Z,25.23
2018-08-19T08:59:45.740Z,25.36
2018-08-19T09:01:56.299Z,25.38
2018-08-19T09:02:57.014Z,25.48
2018-08-19T09:03:57.014Z,25.57
2018-08-19T09:05:17.601Z,25.69
2018-08-19T09:06:24.516Z,25.56
2018-08-19T09:06:57.519Z,25.57
2018-08-19T09:07:57.515Z,25.66
2018-08-19T09:08:57.114Z,25.81
2018-08-19T09:10:20.012Z,25.71
2018-08-19T09:10:57.372Z,25.64
2018-08-19T09:11:58.015Z,25.74
2018-08-19T09:13:12.513Z,25.74
2018-08-19T09:14:12.520Z,25.79
2018-08-19T09:16:51.038Z,26.00
2018-08-19T09:17:44.046Z,26.01
2018-08-19T09:18:30.038Z,26.23
2018-08-19T09:19:50.649Z,26.23
2018-08-19T09:22:15.917Z,26.38
2018-08-19T09:23:02.000Z,26.39
2018-08-19T09:24:01.916Z,26.49
2018-08-19T09:26:33.719Z,26.68
2018-08-19T09:27:33.716Z,26.69
2018-08-19T09:28:33.718Z,26.83
2018-08-19T09:29:34.213Z,26.88
2018-08-19T09:30:35.215Z,26.94
2018-08-19T09:31:34.216Z,26.90
2018-08-19T09:32:34.221Z,26.64
2018-08-19T09:33:34.717Z,26.65
2018-08-19T09:34:36.763Z,26.75
2018-08-19T09:35:34.716Z,26.81
2018-08-19T09:36:55.716Z,26.87
2018-08-19T09:43:41.328Z,27.28
2018-08-19T09:45:01.669Z,27.31
2018-08-19T09:45:41.335Z,27.49
2018-08-19T09:48:28.545Z,27.62
2018-08-19T09:49:12.464Z,27.49
2018-08-19T09:50:13.113Z,27.49
2018-08-19T09:52:58.876Z,27.59
2018-08-19T09:53:44.881Z,27.61
2018-08-19T09:56:18.641Z,27.80
2018-08-19T09:57:16.648Z,27.78
2018-08-19T09:58:16.651Z,27.81
2018-08-19T09:59:17.148Z,27.80
2018-08-19T10:02:15.540Z,28.02
2018-08-19T10:02:47.900Z,28.11
2018-08-19T10:03:48.550Z,28.30
2018-08-19T10:04:48.181Z,28.39
2018-08-19T10:05:49.050Z,28.33
2018-08-19T10:06:49.047Z,28.38
2018-08-19T10:07:49.097Z,28.32
2018-08-19T10:09:03.562Z,28.40
2018-08-19T10:09:49.550Z,28.43
2018-08-19T10:11:03.551Z,28.45
2018-08-19T10:11:49.039Z,28.50
2018-08-19T10:12:49.151Z,28.54
2018-08-19T10:15:35.412Z,28.62
2018-08-19T10:16:41.777Z,28.69
2018-08-19T10:17:21.418Z,28.67
2018-08-19T10:19:52.459Z,28.67
2018-08-19T10:21:15.195Z,28.72
2018-08-19T10:22:13.708Z,28.72
2018-08-19T10:24:38.962Z,28.87
2018-08-19T10:25:26.962Z,28.82
2018-08-19T10:26:45.973Z,28.83
2018-08-19T10:27:46.469Z,28.82
2018-08-19T10:29:56.142Z,28.82
2018-08-19T10:31:17.889Z,28.79
2018-08-19T10:31:56.873Z,28.83
2018-08-19T10:33:18.376Z,28.85
2018-08-19T10:34:18.381Z,28.87
2018-08-19T10:35:01.804Z,28.94
2018-08-19T10:35:59.373Z,29.10
2018-08-19T10:38:29.138Z,29.20
2018-08-19T10:39:28.493Z,29.23
2018-08-19T10:40:29.140Z,29.20
2018-08-19T10:41:43.640Z,29.35
2018-08-19T10:42:28.872Z,29.37
2018-08-19T10:43:50.641Z,29.45
2018-08-19T10:44:35.640Z,29.45
2018-08-19T10:45:51.141Z,29.45
2018-08-19T10:48:22.537Z,29.66
2018-08-19T10:49:03.542Z,29.66
2018-08-19T10:50:25.020Z,29.63
2018-08-19T10:54:06.742Z,29.74
2018-08-19T10:55:18.754Z,29.86
2018-08-19T10:56:25.723Z,29.71
2018-08-19T10:57:26.249Z,29.76
2018-08-19T10:58:26.267Z,29.67
2018-08-19T11:00:36.797Z,29.64
2018-08-19T11:01:36.804Z,29.62
2018-08-19T11:02:36.811Z,29.69
2018-08-19T11:03:51.304Z,29.86
2018-08-19T11:06:36.267Z,30.16
2018-08-19T11:08:40.609Z,30.11
2018-08-19T11:10:03.625Z,30.16
2018-08-19T11:10:40.615Z,30.22
2018-08-19T11:12:02.116Z,30.19
2018-08-19T11:12:41.120Z,30.26
2018-08-19T11:13:41.137Z,30.30
2018-08-19T11:15:02.125Z,30.34
2018-08-19T11:15:40.729Z,30.37
2018-08-19T11:16:41.620Z,30.51
2018-08-19T11:17:41.625Z,30.48
2018-08-19T11:19:05.615Z,30.56
2018-08-19T11:19:42.227Z,30.48
2018-08-19T11:22:14.460Z,30.48
2018-08-19T11:23:36.531Z,30.44
2018-08-19T11:24:13.528Z,30.42
2018-08-19T11:25:14.034Z,30.48
2018-08-19T11:26:14.028Z,30.56
2018-08-19T11:27:14.031Z,30.54
2018-08-19T11:28:14.028Z,30.63
2018-08-19T11:31:00.292Z,30.64
2018-08-19T11:31:46.306Z,30.73
2018-08-19T11:32:46.302Z,30.79
2018-08-19T11:33:49.341Z,30.91
2018-08-19T11:36:38.331Z,31.32
2018-08-19T11:37:17.452Z,31.45
2018-08-19T11:38:18.083Z,31.69
2018-08-19T11:39:32.583Z,31.84
2018-08-19T11:41:18.599Z,32.65
2018-08-19T11:42:18.583Z,33.00
2018-08-19T11:43:18.269Z,33.28
2018-08-19T11:44:19.058Z,33.28
2018-08-19T11:45:22.015Z,33.89
2018-08-19T11:46:18.570Z,34.34
2018-08-19T11:47:25.630Z,34.46
2018-08-19T11:48:21.586Z,35.00
2018-08-19T11:49:19.584Z,35.39
2018-08-19T11:50:19.580Z,35.89
2018-08-19T11:51:43.083Z,36.30
2018-08-19T11:52:20.083Z,36.72
2018-08-19T11:55:13.112Z,37.12
2018-08-19T11:55:51.015Z,37.21
2018-08-19T11:57:12.647Z,37.59
2018-08-19T11:59:23.437Z,38.12
2018-08-19T12:01:57.002Z,38.38
2018-08-19T12:03:15.983Z,38.65
2018-08-19T12:03:54.986Z,38.86
2018-08-19T12:05:16.485Z,38.75
2018-08-19T12:05:55.501Z,38.78
2018-08-19T12:07:17.483Z,38.78
2018-08-19T12:07:54.972Z,38.65
2018-08-19T12:08:55.098Z,38.70
2018-08-19T12:11:48.425Z,38.87
2018-08-19T12:12:27.431Z,38.92
2018-08-19T12:13:27.431Z,39.22
2018-08-19T12:14:41.933Z,38.67
2018-08-19T12:15:27.930Z,38.53
2018-08-19T12:16:27.932Z,38.79
2018-08-19T12:17:27.932Z,38.15
2018-08-19T12:18:29.362Z,38.22
2018-08-19T12:21:06.349Z,38.74
2018-08-19T12:23:31.798Z,38.81
2018-08-19T12:24:31.787Z,38.97
2018-08-19T12:25:33.716Z,38.82
2018-08-19T12:28:03.594Z,39.05
2018-08-19T12:29:03.596Z,39.22
2018-08-19T12:30:04.097Z,39.31
2018-08-19T12:31:25.099Z,39.35
2018-08-19T12:33:38.229Z,39.56
2018-08-19T12:34:37.792Z,39.66
2018-08-19T12:37:10.644Z,39.90
2018-08-19T12:38:08.597Z,39.85
2018-08-19T12:39:08.596Z,39.97
2018-08-19T12:41:54.406Z,40.46
2018-08-19T12:42:40.405Z,40.36
2018-08-19T12:44:03.334Z,40.67
2018-08-19T12:44:41.860Z,40.97
2018-08-19T12:45:40.910Z,40.95
2018-08-19T12:47:03.907Z,41.20
2018-08-19T12:47:40.905Z,40.68
2018-08-19T12:48:40.548Z,40.61
2018-08-19T12:49:43.410Z,40.58
2018-08-19T12:50:41.406Z,40.64
2018-08-19T12:51:42.354Z,40.64
2018-08-19T12:54:20.100Z,40.61
2018-08-19T12:55:13.161Z,40.72
2018-08-19T12:56:34.660Z,41.04
2018-08-19T12:57:19.665Z,41.09
2018-08-19T12:58:13.661Z,41.16
2018-08-19T12:59:43.162Z,40.48
2018-08-19T13:02:12.455Z,40.04
2018-08-19T13:02:46.459Z,39.99
2018-08-19T13:03:45.465Z,40.16
2018-08-19T13:06:17.292Z,40.03
2018-08-19T13:07:38.299Z,40.13
2018-08-19T13:08:17.298Z,39.97
2018-08-19T13:09:40.801Z,40.26
2018-08-19T13:10:17.060Z,40.29
2018-08-19T13:11:19.765Z,40.73
2018-08-19T13:12:31.809Z,41.13
2018-08-19T13:13:19.729Z,40.78
2018-08-19T13:14:39.296Z,40.63
2018-08-19T13:15:39.296Z,40.09
2018-08-19T13:16:47.727Z,40.15
2018-08-19T13:18:56.721Z,40.31
2018-08-19T13:19:49.974Z,40.34
2018-08-19T13:20:50.718Z,40.76
2018-08-19T13:21:50.718Z,41.05
2018-08-19T13:24:43.520Z,42.09
2018-08-19T13:27:14.345Z,42.00
2018-08-19T13:28:15.075Z,41.33
2018-08-19T13:28:54.076Z,41.42
2018-08-19T13:31:46.149Z,40.06
2018-08-19T13:32:46.892Z,39.94
2018-08-19T13:33:25.883Z,40.09
2018-08-19T13:34:26.385Z,40.33
2018-08-19T13:35:47.384Z,40.53
2018-08-19T13:36:26.387Z,40.49
2018-08-19T13:37:25.877Z,40.46
2018-08-19T13:38:26.884Z,40.06
2018-08-19T13:39:40.880Z,40.16
2018-08-19T13:40:28.313Z,40.57
2018-08-19T13:41:26.891Z,40.91
2018-08-19T13:44:00.133Z,41.14
2018-08-19T13:44:58.701Z,41.38
2018-08-19T13:45:58.707Z,41.44
2018-08-19T13:48:30.496Z,40.34
2018-08-19T13:49:45.976Z,40.03
2018-08-19T13:50:30.501Z,40.44
2018-08-19T13:51:31.001Z,40.53
2018-08-19T13:52:31.000Z,40.48
2018-08-19T13:53:33.003Z,40.51
2018-08-19T13:54:30.524Z,40.11
2018-08-19T13:55:31.501Z,40.04
2018-08-19T13:56:31.502Z,40.18
2018-08-19T13:57:31.506Z,40.68
2018-08-19T13:58:52.514Z,41.04
2018-08-19T13:59:32.006Z,41.04
2018-08-19T14:03:34.205Z,40.67
2018-08-19T14:04:34.924Z,40.11
2018-08-19T14:05:41.453Z,40.19
2018-08-19T14:08:06.031Z,39.10
2018-08-19T14:09:28.764Z,39.36
2018-08-19T14:10:06.758Z,39.25
2018-08-19T14:11:07.262Z,39.41
2018-08-19T14:12:34.259Z,40.00
2018-08-19T14:14:38.797Z,40.71
2018-08-19T14:17:10.833Z,40.56
2018-08-19T14:18:12.353Z,40.58
2018-08-19T14:19:10.355Z,40.53
2018-08-19T14:20:17.813Z,40.39
2018-08-19T14:22:44.237Z,40.13
2018-08-19T14:24:07.180Z,40.33
2018-08-19T14:24:42.248Z,40.54
2018-08-19T14:25:42.744Z,39.97
2018-08-19T14:28:14.171Z,40.06
2018-08-19T14:29:14.179Z,40.03
2018-08-19T14:30:14.289Z,40.15
2018-08-19T14:33:06.981Z,40.31
2018-08-19T14:33:45.987Z,39.97
2018-08-19T14:35:09.918Z,39.75
2018-08-19T14:35:46.486Z,39.84
2018-08-19T14:38:17.916Z,39.78
2018-08-19T14:39:17.925Z,39.78
2018-08-19T14:40:18.037Z,39.13
2018-08-19T14:42:51.654Z,38.12
2018-08-19T14:43:49.082Z,37.87
2018-08-19T14:46:21.440Z,36.97
2018-08-19T14:47:21.418Z,36.41
2018-08-19T14:48:42.423Z,36.03
2018-08-19T14:49:43.017Z,35.84
2018-08-19T14:50:42.909Z,35.89
2018-08-19T14:51:27.909Z,35.44
2018-08-19T14:52:21.911Z,35.27
2018-08-19T14:53:23.343Z,35.00
2018-08-19T14:54:25.842Z,34.84
2018-08-19T14:55:22.408Z,34.64
2018-08-19T14:56:23.340Z,34.37
2018-08-19T15:01:57.148Z,33.82
2018-08-19T15:02:59.585Z,33.74
2018-08-19T15:03:57.145Z,33.70
2018-08-19T15:06:28.221Z,33.28
2018-08-19T15:07:28.941Z,33.26
2018-08-19T15:08:49.941Z,33.21
2018-08-19T15:09:29.441Z,33.24
2018-08-19T15:10:28.684Z,33.17
2018-08-19T15:11:29.442Z,33.11
2018-08-19T15:12:43.941Z,33.00
2018-08-19T15:13:31.376Z,32.99
2018-08-19T15:14:29.943Z,32.95
2018-08-19T15:15:50.950Z,32.88
2018-08-19T15:16:50.940Z,32.91
2018-08-19T15:19:03.730Z,32.73
2018-08-19T15:20:22.738Z,32.72
2018-08-19T15:21:01.739Z,32.78
2018-08-19T15:22:23.240Z,32.72
2018-08-19T15:23:02.236Z,32.72
2018-08-19T15:24:02.236Z,32.69
2018-08-19T15:25:02.237Z,32.59
2018-08-19T15:27:55.025Z,32.50
2018-08-19T15:28:36.026Z,32.14
2018-08-19T15:29:36.027Z,32.16
2018-08-19T15:30:34.553Z,32.09
2018-08-19T15:31:34.533Z,31.98
2018-08-19T15:32:34.785Z,31.87
2018-08-19T15:33:35.027Z,31.91
2018-08-19T15:34:35.032Z,31.90
2018-08-19T15:37:26.684Z,31.50
2018-08-19T15:38:05.805Z,31.30
2018-08-19T15:39:12.433Z,31.34
2018-08-19T15:40:06.933Z,31.25
2018-08-19T15:41:06.940Z,31.10
2018-08-19T15:42:07.927Z,31.04
2018-08-19T15:43:27.935Z,30.96
2018-08-19T15:44:14.431Z,30.91
2018-08-19T15:45:08.430Z,30.86
2018-08-19T15:46:07.439Z,30.86
2018-08-19T15:47:07.447Z,30.68
2018-08-19T15:49:39.204Z,30.59
2018-08-19T15:50:39.212Z,30.56
2018-08-19T15:51:39.210Z,30.49
2018-08-19T15:52:38.817Z,30.51
2018-08-19T15:53:41.643Z,30.48
2018-08-19T15:54:39.716Z,30.45
2018-08-19T15:55:42.209Z,30.49
2018-08-19T15:56:54.213Z,30.38
2018-08-19T15:58:00.424Z,30.42
2018-08-19T15:58:41.652Z,30.42
2018-08-19T15:59:40.205Z,30.32
2018-08-19T16:01:01.206Z,30.42
2018-08-19T16:03:12.482Z,30.21
2018-08-19T16:04:12.493Z,30.18
2018-08-19T16:06:12.983Z,30.21
2018-08-19T16:07:12.099Z,30.25
2018-08-19T16:08:12.207Z,30.19
2018-08-19T16:09:18.979Z,30.18
2018-08-19T16:10:15.914Z,30.16
2018-08-19T16:11:12.587Z,30.03
2018-08-19T16:12:34.579Z,30.08
2018-08-19T16:13:34.483Z,30.04
2018-08-19T16:14:13.489Z,30.06
2018-08-19T16:16:45.251Z,29.86
2018-08-19T16:17:45.255Z,29.84
2018-08-19T16:18:45.352Z,29.79
2018-08-19T16:19:44.867Z,29.74
2018-08-19T16:20:44.975Z,29.79
2018-08-19T16:21:47.775Z,29.76
2018-08-19T16:23:00.258Z,29.79
2018-08-19T16:24:07.265Z,29.84
2018-08-19T16:25:13.257Z,29.91
2018-08-19T16:26:00.261Z,29.81